Flight Briefing for CPX106

Departure Arrival
Seattle-Tacoma International Airport (KSEA)
Click to view FAA NOTAMS
Ted Stevens Anchorage International Airport (PANC)
Click to view FAA NOTAMS
Departure Time Arrival Time
N/A N/A
Aircraft Distance
MD-11SF 1257nm
Departure METAR Arrival METAR
KSEA 152129Z 21009KT 10SM BKN020 BKN035 BKN250 07/03 A2965 RMK AO2 T00720028 PANC 152053Z 00000KT 10SM FEW002 M11/M17 A3004 RMK AO2 SLP177 FG BNK DSNT NE T11111172 51003
Suggested Route
BANGR9 ARRIE FOCHE PRYCE BKA LAIRE JOH WITTI4


View recent IFR Routes data
Notes



Charts and Procedures

Charts for KSEA
No chart available
Charts for PANC
No chart available

Ventusky Weather